KLHM

Lincoln Regional / Karl Harder Field Airport

Lincoln, California, USA
METAR KLHM 190555Z AUTO 31004KT 10SM OVC050 12/10 A3037 RMK AO1
Observed Flight Rules
Jan-19 @ 05:55 UTC (24 minutes ago) Visual Flight Rules
Wind Visibility Clouds
310° at 4 knots 10 miles
  • Overcast at 5,000' AGL
Temperatures Readings
Current 12°C / 54°F
Dewpoint 10°C / 50°F
Humidity 88%
Altimeter 30.37" Hg
Pressure 1028.42 hPa
Elevation 37
METAR KLHM 190555Z AUTO 31004KT 10SM OVC050 12/10 A3037 RMK AO1
Observed Flight Rules
Jan-19 @ 05:55 UTC
(24 minutes ago)
VFR
Wind Visibility
310° at 4 knots 10 miles
Clouds
  • Overcast at 5,000' AGL
Temperature Dewpoint
12°C / 54°F 10°C / 50°F
Humidity Altimeter Pressure
88% 30.37" Hg 1028.42 hPa